Time;durP1;ratioP1;P1;durP2;ratioP2;P2;SDS_P1;SDS_P2;PMS_P1;PMS_P2;Temp;Humidity;BMP_temperature;BMP_pressure;BME280_temperature;BME280_humidity;BME280_pressure;Samples;Min_cycle;Max_cycle;Signal;HPM_P1;HPM_P2
2021/03/30 00:00:29;;;;;;;65.90;44.97;;;;;;;5.88;74.52;101088.95;1762690;80;21665;-60
2021/03/30 00:02:57;;;;;;;54.97;32.00;;;;;;;5.89;74.46;101088.95;1764678;80;21406;-61
2021/03/30 00:05:24;;;;;;;48.37;28.20;;;;;;;5.90;74.01;101088.50;1770535;78;21137;-60
2021/03/30 00:07:52;;;;;;;45.57;26.27;;;;;;;5.93;73.45;101078.69;1771069;80;21155;-61
2021/03/30 00:10:23;;;;;;;55.47;30.73;;;;;;;5.97;73.07;101084.42;1766319;79;21118;-61
2021/03/30 00:12:50;;;;;;;53.77;30.40;;;;;;;6.00;72.54;101084.41;1767930;79;21518;-61
2021/03/30 00:15:18;;;;;;;52.13;30.30;;;;;;;6.06;72.01;101083.02;1763779;79;21183;-61
2021/03/30 00:17:46;;;;;;;48.93;31.20;;;;;;;6.10;71.67;101078.98;1767057;79;21122;-61
2021/03/30 00:20:14;;;;;;;53.83;30.83;;;;;;;6.12;71.26;101076.75;1775760;79;21142;-61
2021/03/30 00:22:43;;;;;;;50.70;29.77;;;;;;;6.15;70.92;101075.80;1783117;79;21181;-60
2021/03/30 00:25:13;;;;;;;46.03;27.93;;;;;;;6.16;70.49;101081.14;1782410;78;21215;-61
2021/03/30 00:27:40;;;;;;;52.67;29.00;;;;;;;6.16;70.32;101079.80;1783314;78;21369;-61
2021/03/30 00:30:09;;;;;;;43.77;26.23;;;;;;;6.16;70.09;101084.27;1784129;78;21123;-61
2021/03/30 00:32:37;;;;;;;51.57;29.73;;;;;;;6.16;69.87;101081.14;1782790;79;21118;-61
2021/03/30 00:35:05;;;;;;;41.57;27.37;;;;;;;6.15;69.62;101078.03;1781539;78;21506;-61
2021/03/30 00:37:36;;;;;;;38.00;23.50;;;;;;;6.15;69.58;101079.81;1743466;80;21209;-61
2021/03/30 00:40:07;;;;;;;38.80;23.37;;;;;;;6.16;69.50;101083.81;1758150;79;21350;-61
2021/03/30 00:42:35;;;;;;;38.53;21.37;;;;;;;6.20;69.23;101084.69;1765662;80;22315;-61
2021/03/30 00:45:24;;;;;;;36.83;21.77;;;;;;;6.21;69.09;101081.97;1740799;80;21185;-61
2021/03/30 00:47:51;;;;;;;33.93;20.97;;;;;;;6.23;69.01;101080.18;1749834;80;21479;-61
2021/03/30 00:50:21;;;;;;;38.60;22.80;;;;;;;6.25;68.78;101077.50;1757993;80;21197;-60
2021/03/30 00:52:52;;;;;;;33.70;21.07;;;;;;;6.27;68.59;101085.06;1746005;80;21375;-60
2021/03/30 00:55:21;;;;;;;31.60;20.47;;;;;;;6.25;68.45;101078.39;1726977;80;21178;-60
2021/03/30 00:57:49;;;;;;;39.17;22.17;;;;;;;6.26;68.26;101080.16;1751233;80;21930;-60
2021/03/30 01:00:17;;;;;;;32.20;20.43;;;;;;;6.23;68.13;101082.85;1754140;80;21517;-61
2021/03/30 01:02:44;;;;;;;33.80;21.13;;;;;;;6.22;68.07;101081.08;1753956;80;21208;-60
2021/03/30 01:05:14;;;;;;;32.67;19.90;;;;;;;6.21;67.86;101083.80;1754097;80;21222;-61
2021/03/30 01:08:07;;;;;;;39.40;21.80;;;;;;;6.17;67.72;101082.92;1749572;80;21177;-61
2021/03/30 01:10:56;;;;;;;35.03;20.53;;;;;;;6.15;67.70;101082.48;1752255;80;21204;-61
2021/03/30 01:14:10;;;;;;;29.13;18.17;;;;;;;6.12;67.42;101082.09;1756697;80;21225;-61
2021/03/30 01:16:40;;;;;;;27.90;17.70;;;;;;;6.07;67.39;101079.44;1750883;80;21251;-60
2021/03/30 01:19:47;;;;;;;28.83;17.47;;;;;;;6.08;67.49;101081.22;1757606;80;22258;-60
2021/03/30 01:22:38;;;;;;;37.47;19.90;;;;;;;6.11;67.43;101084.77;1755600;80;21197;-61
2021/03/30 01:25:05;;;;;;;40.77;20.57;;;;;;;6.14;67.36;101089.62;1679179;80;21560;-61
2021/03/30 01:27:44;;;;;;;33.43;20.97;;;;;;;6.16;67.28;101087.83;1757819;80;21174;-61
2021/03/30 01:30:19;;;;;;;40.00;26.95;;;;;;;6.23;67.20;101085.98;1852553;75;28355;-61
2021/03/30 01:32:50;;;;;;;37.30;24.33;;;;;;;6.24;67.10;101087.30;1779544;79;21201;-61
2021/03/30 01:35:22;;;;;;;43.17;24.63;;;;;;;6.31;66.90;101088.13;1773158;80;21377;-61
2021/03/30 01:37:49;;;;;;;37.03;23.37;;;;;;;6.31;66.81;101095.70;1791400;79;21038;-61
2021/03/30 01:40:21;;;;;;;39.17;23.07;;;;;;;6.28;66.80;101089.06;1810498;78;21505;-61
2021/03/30 01:43:08;;;;;;;42.37;24.73;;;;;;;6.27;66.75;101090.41;1741257;78;21215;-62
2021/03/30 01:45:37;;;;;;;35.53;23.40;;;;;;;6.23;66.79;101089.98;1758931;80;21171;-62
2021/03/30 01:48:06;;;;;;;35.80;24.20;;;;;;;6.20;66.79;101094.05;1754366;80;21380;-62
2021/03/30 01:50:33;;;;;;;39.07;22.63;;;;;;;6.17;66.83;101091.39;1754065;80;21725;-62
2021/03/30 01:53:00;;;;;;;39.37;23.70;;;;;;;6.14;66.83;101090.95;1753190;80;21150;-62
2021/03/30 01:55:28;;;;;;;37.20;20.70;;;;;;;6.09;66.88;101092.80;1744464;80;21175;-62
2021/03/30 01:57:58;;;;;;;31.87;18.67;;;;;;;6.08;66.92;101091.91;1737501;80;21206;-62
2021/03/30 02:00:28;;;;;;;27.67;18.03;;;;;;;6.10;66.97;101093.23;1761508;80;21696;-62
2021/03/30 02:02:55;;;;;;;34.13;21.17;;;;;;;6.06;67.19;101096.38;1757802;80;21052;-62
2021/03/30 02:05:23;;;;;;;30.47;20.17;;;;;;;6.02;67.44;101101.78;1780037;79;21215;-62
2021/03/30 02:07:55;;;;;;;32.40;22.50;;;;;;;5.99;67.58;101105.34;1750774;80;21187;-62
2021/03/30 02:13:00;;;;;;;46.13;31.17;;;;;;;5.91;68.03;101108.53;1843328;74;38098;-62
2021/03/30 02:15:29;;;;;;;41.67;26.47;;;;;;;5.87;68.24;101113.42;1835869;75;21282;-62
2021/03/30 02:18:05;;;;;;;48.27;27.43;;;;;;;5.90;68.30;101113.88;1834522;75;21362;-62
2021/03/30 02:20:38;;;;;;;46.30;27.63;;;;;;;5.86;68.43;101113.01;1835568;75;21586;-62
2021/03/30 02:23:09;;;;;;;41.60;24.87;;;;;;;5.82;68.63;101111.23;1833809;75;20976;-62
2021/03/30 02:25:36;;;;;;;39.57;24.33;;;;;;;5.78;68.78;101109.95;1834735;75;20957;-62
2021/03/30 02:28:07;;;;;;;38.20;23.03;;;;;;;5.72;68.92;101098.84;1836939;75;20976;-62
2021/03/30 02:30:36;;;;;;;32.13;20.43;;;;;;;5.69;68.97;101094.87;1831513;75;21400;-62
2021/03/30 02:33:04;;;;;;;30.13;17.97;;;;;;;5.67;69.02;101096.22;1834834;75;20988;-62
2021/03/30 02:35:32;;;;;;;33.00;17.77;;;;;;;5.65;68.91;101099.78;1835523;75;21131;-62
2021/03/30 02:37:59;;;;;;;28.80;18.00;;;;;;;5.63;68.87;101105.58;1813808;77;21323;-62
2021/03/30 02:40:27;;;;;;;29.13;17.50;;;;;;;5.60;68.97;101105.17;1837279;75;21074;-62
2021/03/30 02:42:54;;;;;;;32.10;20.10;;;;;;;5.62;69.10;101098.46;1822168;75;22332;-62
2021/03/30 02:45:25;;;;;;;32.50;20.67;;;;;;;5.63;69.16;101101.57;1816106;77;21147;-62
2021/03/30 02:48:00;;;;;;;28.73;19.37;;;;;;;5.65;69.25;101101.13;1815460;77;21096;-62
2021/03/30 02:50:27;;;;;;;31.53;19.63;;;;;;;5.66;69.04;101102.90;1813748;77;20968;-62
2021/03/30 02:52:55;;;;;;;33.00;19.20;;;;;;;5.66;68.88;101102.45;1814064;77;20964;-62
2021/03/30 02:55:23;;;;;;;34.30;20.87;;;;;;;5.67;68.73;101101.56;1820306;77;21370;-62
2021/03/30 02:57:50;;;;;;;28.10;19.53;;;;;;;5.68;68.60;101102.45;1817014;77;21103;-62
2021/03/30 03:00:18;;;;;;;37.10;21.53;;;;;;;5.69;68.60;101106.90;1817491;77;21877;-62
2021/03/30 03:02:45;;;;;;;29.60;19.80;;;;;;;5.68;68.71;101110.46;1818732;77;21374;-62
2021/03/30 03:05:13;;;;;;;30.10;20.17;;;;;;;5.68;68.71;101110.46;1818649;77;21518;-62
2021/03/30 03:07:41;;;;;;;35.73;20.73;;;;;;;5.67;68.63;101112.69;1809948;77;21400;-62
2021/03/30 03:10:09;;;;;;;30.87;20.40;;;;;;;5.68;68.78;101102.00;1814251;77;21107;-62
2021/03/30 03:12:38;;;;;;;32.00;18.93;;;;;;;5.65;69.17;101110.47;1796876;77;21163;-62
2021/03/30 03:15:29;;;;;;;32.10;18.70;;;;;;;5.61;69.42;101113.59;1785345;78;21622;-62
2021/03/30 03:17:58;;;;;;;30.40;16.10;;;;;;;5.61;69.56;101116.27;1682329;83;21213;-62
2021/03/30 03:20:25;;;;;;;28.50;17.00;;;;;;;5.59;69.66;101112.75;1713611;82;21454;-62
2021/03/30 03:22:52;;;;;;;29.63;18.33;;;;;;;5.59;69.76;101110.08;1731899;81;21691;-62
2021/03/30 03:25:21;;;;;;;36.57;20.10;;;;;;;5.56;69.84;101110.08;1734596;81;21218;-62
2021/03/30 03:27:49;;;;;;;33.07;19.80;;;;;;;5.57;70.05;101111.86;1708264;82;21876;-62
2021/03/30 03:30:19;;;;;;;31.03;20.63;;;;;;;5.59;69.98;101109.19;1730664;81;21372;-62
2021/03/30 03:32:46;;;;;;;37.07;21.27;;;;;;;5.62;69.88;101111.37;1734287;81;21355;-62
2021/03/30 03:35:14;;;;;;;30.80;19.93;;;;;;;5.64;69.55;101109.58;1708777;82;21236;-62
2021/03/30 03:37:46;;;;;;;34.63;21.60;;;;;;;5.66;69.33;101113.14;1734781;81;21199;-62
2021/03/30 03:40:15;;;;;;;36.70;19.93;;;;;;;5.67;69.13;101110.91;1729755;81;21566;-62
2021/03/30 03:42:43;;;;;;;36.60;22.87;;;;;;;5.68;68.99;101110.02;1682018;82;21211;-62
2021/03/30 03:45:11;;;;;;;34.13;20.87;;;;;;;5.69;68.90;101114.91;1673836;84;21634;-62
2021/03/30 03:47:40;;;;;;;35.33;22.13;;;;;;;5.70;68.85;101124.67;1695651;83;21145;-62
2021/03/30 03:50:09;;;;;;;35.23;21.57;;;;;;;5.70;68.75;101126.01;1677413;84;21140;-62
2021/03/30 03:52:43;;;;;;;36.80;21.80;;;;;;;5.69;68.51;101126.94;1685747;84;21573;-61
2021/03/30 03:55:12;;;;;;;30.23;19.37;;;;;;;5.68;68.35;101131.83;1697866;83;21724;-62
2021/03/30 03:57:53;;;;;;;29.03;18.30;;;;;;;5.65;68.24;101125.16;1695924;83;21869;-62
2021/03/30 04:00:22;;;;;;;32.70;18.63;;;;;;;5.67;68.23;101136.29;1692871;83;21217;-62
2021/03/30 04:03:09;;;;;;;35.67;17.37;;;;;;;5.69;68.23;101134.95;1697897;83;21667;-62
2021/03/30 04:05:51;;;;;;;28.33;17.10;;;;;;;5.73;68.16;101131.79;1648517;85;21194;-62
2021/03/30 04:08:27;;;;;;;35.17;19.50;;;;;;;5.80;68.03;101133.07;1817935;76;26660;-62
2021/03/30 04:10:54;;;;;;;26.90;18.23;;;;;;;5.78;67.90;101133.55;1793770;79;20973;-62
2021/03/30 04:13:22;;;;;;;29.60;17.67;;;;;;;5.81;67.77;101133.51;1789610;77;21425;-62
2021/03/30 04:15:50;;;;;;;27.93;17.43;;;;;;;5.84;67.64;101137.95;1789774;77;21126;-62
2021/03/30 04:18:17;;;;;;;31.03;18.23;;;;;;;5.86;67.57;101136.17;1791657;77;20980;-62
2021/03/30 04:20:44;;;;;;;31.03;18.20;;;;;;;5.88;67.45;101145.95;1753089;80;21170;-62
2021/03/30 04:23:13;;;;;;;23.27;16.90;;;;;;;5.89;67.37;101149.52;1739011;79;21024;-62
2021/03/30 04:25:40;;;;;;;28.63;17.20;;;;;;;5.90;67.17;101147.29;1737565;81;21396;-62
2021/03/30 04:28:08;;;;;;;96.83;22.63;;;;;;;5.90;67.11;101143.28;1786879;77;21072;-62
2021/03/30 04:30:35;;;;;;;47.80;18.43;;;;;;;5.89;66.97;101138.38;1791068;79;21165;-62
2021/03/30 04:33:04;;;;;;;41.90;19.40;;;;;;;5.89;66.93;101140.17;1785841;77;21091;-62
2021/03/30 04:35:32;;;;;;;36.37;19.70;;;;;;;5.89;66.79;101145.52;1794581;77;21201;-62
2021/03/30 04:37:59;;;;;;;31.50;17.60;;;;;;;5.86;66.77;101146.41;1791942;79;22380;-62
2021/03/30 04:40:26;;;;;;;26.73;15.83;;;;;;;5.86;66.67;101150.86;1790006;79;21211;-62
2021/03/30 04:42:53;;;;;;;29.67;17.40;;;;;;;5.85;66.68;101147.75;1775484;79;21182;-62
2021/03/30 04:45:21;;;;;;;29.13;15.43;;;;;;;5.86;66.73;101154.88;1769922;80;21170;-61
2021/03/30 04:47:48;;;;;;;24.53;15.23;;;;;;;5.88;66.75;101159.32;1769829;79;21193;-60
2021/03/30 04:50:16;;;;;;;25.27;14.50;;;;;;;5.93;66.61;101155.30;1769282;80;21380;-60
2021/03/30 04:52:43;;;;;;;22.73;13.80;;;;;;;5.96;66.41;101153.92;1770593;79;21186;-62
2021/03/30 04:55:12;;;;;;;21.37;14.30;;;;;;;6.00;66.35;101167.72;1769383;80;21157;-62
2021/03/30 04:57:39;;;;;;;25.73;14.73;;;;;;;6.02;66.20;101160.58;1768381;80;21480;-63
2021/03/30 05:00:08;;;;;;;27.10;15.97;;;;;;;6.05;66.08;101164.55;1770322;80;21147;-62
2021/03/30 05:02:36;;;;;;;28.40;16.77;;;;;;;6.08;66.05;101161.86;1769334;80;22281;-62
2021/03/30 05:05:05;;;;;;;25.40;15.73;;;;;;;6.10;65.96;101166.75;1770252;79;21171;-62
2021/03/30 05:07:33;;;;;;;24.13;16.10;;;;;;;6.11;65.85;101164.97;1772352;79;21107;-62
2021/03/30 05:10:01;;;;;;;24.00;14.20;;;;;;;6.11;65.70;101172.98;1770084;80;21526;-62
2021/03/30 05:12:28;;;;;;;31.17;15.60;;;;;;;6.11;65.61;101164.97;1769909;80;21111;-62
2021/03/30 05:14:56;;;;;;;25.13;14.87;;;;;;;6.11;65.51;101163.63;1768667;80;21372;-62
2021/03/30 05:17:23;;;;;;;23.13;14.70;;;;;;;6.11;65.47;101168.98;1769951;80;22228;-62
2021/03/30 05:19:51;;;;;;;27.53;15.37;;;;;;;6.09;65.46;101174.33;1767761;79;21164;-62
2021/03/30 05:22:18;;;;;;;36.30;16.37;;;;;;;6.07;65.31;101167.66;1768644;80;22181;-62
2021/03/30 05:24:46;;;;;;;33.20;18.03;;;;;;;6.07;65.18;101177.01;1765942;79;21556;-62
2021/03/30 05:27:13;;;;;;;26.93;17.30;;;;;;;6.07;65.26;101170.78;1768216;80;21399;-61
2021/03/30 05:29:44;;;;;;;35.50;20.67;;;;;;;6.06;65.10;101171.22;1770617;80;21112;-62
2021/03/30 05:32:15;;;;;;;40.30;25.67;;;;;;;6.06;65.02;101177.02;1773486;80;20966;-62
2021/03/30 05:34:45;;;;;;;33.47;23.50;;;;;;;6.06;64.96;101177.91;1768820;79;21108;-62
2021/03/30 05:37:13;;;;;;;30.47;18.13;;;;;;;6.07;65.03;101170.78;1767528;79;21100;-62
2021/03/30 05:39:40;;;;;;;31.67;16.20;;;;;;;6.09;64.97;101174.33;1770141;80;21123;-62
2021/03/30 05:42:08;;;;;;;34.70;17.13;;;;;;;6.11;64.99;101169.88;1771083;79;21135;-62
2021/03/30 05:44:36;;;;;;;26.67;14.47;;;;;;;6.14;64.99;101181.86;1769339;79;21419;-62
2021/03/30 05:49:34;;;;;;;40.00;13.63;;;;;;;6.20;64.75;101179.16;1770780;80;21171;-62
2021/03/30 05:52:02;;;;;;;24.80;13.07;;;;;;;6.25;64.62;101177.77;1767699;79;22058;-62
2021/03/30 05:54:31;;;;;;;25.80;14.13;;;;;;;6.31;64.44;101173.70;1768226;80;21179;-62
2021/03/30 05:57:00;;;;;;;22.70;14.27;;;;;;;6.36;64.34;101179.92;1769164;80;21218;-62
2021/03/30 05:59:27;;;;;;;27.53;13.93;;;;;;;6.41;64.25;101180.30;1769660;80;21177;-62
2021/03/30 06:01:56;;;;;;;28.57;15.93;;;;;;;6.45;64.12;101186.08;1767046;80;21206;-61
2021/03/30 06:04:24;;;;;;;26.03;14.67;;;;;;;6.49;63.94;101185.58;1773322;79;22116;-61
2021/03/30 06:06:51;;;;;;;26.13;14.70;;;;;;;6.50;63.89;101182.45;1768522;80;21119;-62
2021/03/30 06:09:18;;;;;;;23.73;15.20;;;;;;;6.50;63.89;101183.80;1765132;79;20988;-62
2021/03/30 06:11:47;;;;;;;19.43;12.93;;;;;;;6.51;63.67;101185.58;1768705;80;21717;-62
2021/03/30 06:14:14;;;;;;;26.07;15.17;;;;;;;6.51;63.73;101182.89;1767826;79;21613;-62
2021/03/30 06:16:43;;;;;;;22.57;14.03;;;;;;;6.54;63.71;101178.87;1706157;80;22248;-62
2021/03/30 06:19:18;;;;;;;26.23;14.97;;;;;;;6.57;63.68;101180.16;1768567;79;21526;-62
2021/03/30 06:21:47;;;;;;;23.47;12.58;;;;;;;6.60;63.69;101181.03;1771515;80;21084;-62
2021/03/30 06:24:25;;;;;;;25.50;13.73;;;;;;;6.65;63.17;101179.19;1773257;79;21167;-62
2021/03/30 06:27:09;;;;;;;23.40;12.57;;;;;;;6.68;62.90;101179.17;1769933;80;21179;-62
2021/03/30 06:29:38;;;;;;;29.17;12.57;;;;;;;6.72;62.73;101176.88;1767491;80;21324;-61
2021/03/30 06:32:11;;;;;;;16.03;10.30;;;;;;;6.78;62.60;101179.52;1767227;79;21230;-61
2021/03/30 06:34:43;;;;;;;16.80;11.30;;;;;;;6.83;61.98;101180.34;1770986;79;21194;-62
2021/03/30 06:37:38;;;;;;;16.40;11.20;;;;;;;6.87;61.49;101178.98;1772585;80;21544;-61
2021/03/30 06:40:12;;;;;;;;;;;;;;;6.90;61.25;101179.82;1768734;80;21171;-61
2021/03/30 06:42:49;;;;;;;21.40;11.37;;;;;;;6.97;60.90;101186.02;1766580;80;21248;-60
2021/03/30 06:45:20;;;;;;;17.27;10.33;;;;;;;7.02;60.30;101181.48;1771477;79;21481;-62
2021/03/30 06:47:51;;;;;;;31.67;12.87;;;;;;;7.07;60.18;101185.87;1767072;79;21179;-61
2021/03/30 06:50:36;;;;;;;22.77;11.27;;;;;;;7.14;60.33;101185.38;1741437;80;21166;-62
2021/03/30 06:53:14;;;;;;;24.40;10.57;;;;;;;7.23;60.06;101185.73;1767585;80;21187;-62
2021/03/30 06:55:52;;;;;;;11.87;9.13;;;;;;;7.33;59.72;101191.38;1767742;79;21241;-62
2021/03/30 06:58:22;;;;;;;17.50;8.13;;;;;;;7.41;59.24;101196.19;1769476;80;21012;-61
2021/03/30 07:00:50;;;;;;;20.83;10.73;;;;;;;7.48;58.46;101194.78;1734073;81;21519;-62
2021/03/30 07:03:20;;;;;;;17.30;8.20;;;;;;;7.52;57.96;101196.95;1721003;81;21442;-60
2021/03/30 07:05:49;;;;;;;19.67;7.57;;;;;;;7.59;57.58;101198.19;1770123;79;21111;-62
2021/03/30 07:08:19;;;;;;;12.20;6.90;;;;;;;7.69;56.95;101200.30;1771343;80;22281;-62
2021/03/30 07:10:51;;;;;;;10.30;5.30;;;;;;;7.79;56.07;101208.64;1772255;80;21192;-61
2021/03/30 07:13:22;;;;;;;10.43;3.93;;;;;;;7.88;55.44;101201.81;1768206;80;21551;-61
2021/03/30 07:15:57;;;;;;;5.80;3.33;;;;;;;7.99;54.07;101209.23;1769318;79;21179;-60
2021/03/30 07:18:37;;;;;;;7.80;3.23;;;;;;;8.12;52.82;101211.29;1768603;80;21070;-62
2021/03/30 07:21:12;;;;;;;10.53;3.43;;;;;;;8.26;52.36;101204.36;1738332;81;21210;-62
2021/03/30 07:23:42;;;;;;;7.58;2.40;;;;;;;8.43;52.44;101210.37;1735574;80;21666;-61
2021/03/30 07:26:15;;;;;;;3.57;2.07;;;;;;;8.61;51.49;101208.73;1710821;82;21122;-61
2021/03/30 07:28:48;;;;;;;6.33;2.47;;;;;;;8.78;50.08;101204.41;1713919;81;21118;-61
2021/03/30 07:31:21;;;;;;;4.13;2.20;;;;;;;8.92;49.27;101203.72;1707268;82;21401;-61
2021/03/30 07:34:01;;;;;;;2.73;1.97;;;;;;;9.06;48.54;101198.08;1710942;82;21220;-61
2021/03/30 07:36:35;;;;;;;5.17;1.60;;;;;;;9.19;47.79;101194.67;1722851;82;21195;-60
2021/03/30 07:39:04;;;;;;;3.03;2.13;;;;;;;9.32;47.36;101205.63;1723926;81;21245;-59
2021/03/30 07:41:32;;;;;;;4.10;1.53;;;;;;;9.44;46.50;101200.02;1742536;80;21171;-62
2021/03/30 07:44:01;;;;;;;3.03;1.20;;;;;;;9.53;46.08;101205.17;1771088;79;21170;-60
2021/03/30 07:46:30;;;;;;;3.40;1.13;;;;;;;9.63;45.32;101208.55;1770481;80;22271;-60
2021/03/30 07:48:58;;;;;;;6.53;1.90;;;;;;;9.72;45.18;101203.87;1766988;79;21230;-61
2021/03/30 07:51:36;;;;;;;4.63;1.40;;;;;;;9.82;44.99;101208.13;1740157;80;21162;-60
2021/03/30 07:54:10;;;;;;;2.40;1.23;;;;;;;9.94;43.42;101212.82;1774093;79;21210;-61
2021/03/30 07:56:51;;;;;;;4.50;1.15;;;;;;;10.01;42.30;101206.37;1739755;81;21473;-59
2021/03/30 07:59:48;;;;;;;3.07;1.20;;;;;;;10.08;42.80;101205.31;1720841;82;21206;-61
2021/03/30 08:02:22;;;;;;;2.87;1.57;;;;;;;10.17;41.93;101207.79;1773211;80;21162;-61
2021/03/30 08:05:06;;;;;;;4.37;1.67;;;;;;;10.28;42.38;101207.12;1768214;80;21178;-62
2021/03/30 08:07:53;;;;;;;3.93;1.30;;;;;;;10.37;42.22;101208.70;1768345;79;21183;-60
2021/03/30 08:10:34;;;;;;;5.13;1.60;;;;;;;10.45;42.09;101200.86;1766562;80;21468;-62
2021/03/30 08:13:35;;;;;;;3.43;1.80;;;;;;;10.54;41.55;101210.06;1767454;80;22229;-61
2021/03/30 08:16:06;;;;;;;7.72;2.65;;;;;;;10.61;41.98;101198.67;1772513;79;21845;-61
2021/03/30 08:18:40;;;;;;;6.05;2.05;;;;;;;10.70;41.48;101195.73;1770163;79;21099;-61
2021/03/30 08:21:12;;;;;;;5.83;2.20;;;;;;;10.75;40.46;101191.11;1770685;80;21096;-59
2021/03/30 08:24:04;;;;;;;4.10;1.22;;;;;;;10.81;40.69;101191.39;1770921;79;21814;-61
2021/03/30 08:26:37;;;;;;;3.37;2.33;;;;;;;10.88;41.15;101194.38;1770901;79;21134;-61
2021/03/30 08:29:16;;;;;;;3.67;1.95;;;;;;;10.97;39.79;101195.48;1767950;79;21531;-61
2021/03/30 08:31:53;;;;;;;2.75;1.40;;;;;;;11.00;39.77;101185.48;1769843;79;21095;-60
2021/03/30 08:34:27;;;;;;;2.35;1.20;;;;;;;11.06;40.14;101180.88;1769168;80;21110;-61
2021/03/30 08:36:56;;;;;;;4.40;1.30;;;;;;;11.17;39.64;101182.78;1767137;80;21475;-61
2021/03/30 08:39:29;;;;;;;2.00;1.37;;;;;;;11.26;39.58;101186.11;1769416;79;21340;-61
2021/03/30 08:42:15;;;;;;;3.83;1.40;;;;;;;11.36;39.71;101190.31;1769054;79;21084;-62
2021/03/30 08:44:59;;;;;;;2.52;1.20;;;;;;;11.47;39.14;101182.38;1770888;80;21104;-60
2021/03/30 08:47:46;;;;;;;2.55;1.10;;;;;;;11.54;37.83;101181.27;1767705;80;21539;-61
2021/03/30 08:50:25;;;;;;;4.37;1.45;;;;;;;11.53;37.13;101188.48;1749780;80;21442;-60
2021/03/30 08:52:54;;;;;;;3.05;1.25;;;;;;;11.49;37.13;101182.73;1769886;79;21519;-59
2021/03/30 08:55:29;;;;;;;3.87;1.60;;;;;;;11.48;37.70;101181.46;1719587;83;21441;-61
2021/03/30 08:57:59;;;;;;;6.12;2.65;;;;;;;11.56;37.93;101183.47;1753590;80;21116;-61
2021/03/30 09:00:27;;;;;;;3.72;1.50;;;;;;;11.64;37.75;101189.05;1770184;79;21095;-61
2021/03/30 09:03:04;;;;;;;4.72;1.20;;;;;;;11.73;37.08;101187.89;1724795;82;21110;-60
2021/03/30 09:05:40;;;;;;;16.62;1.67;;;;;;;11.78;37.09;101189.12;1716948;82;21833;-61
2021/03/30 09:10:46;;;;;;;3.47;1.87;;;;;;;11.89;37.10;101190.56;1853937;75;27751;-62
2021/03/30 09:13:16;;;;;;;4.08;1.42;;;;;;;11.94;36.77;101188.59;1844161;77;21182;-60
2021/03/30 09:15:44;;;;;;;3.20;1.20;;;;;;;12.02;36.92;101180.26;1785540;79;21355;-60
2021/03/30 09:18:13;;;;;;;2.37;1.50;;;;;;;12.08;36.65;101180.05;1799296;78;21501;-62
2021/03/30 09:20:42;;;;;;;1.40;1.02;;;;;;;12.15;36.80;101182.12;1727911;80;21462;-60
2021/03/30 09:25:52;;;;;;;1.60;1.10;;;;;;;12.30;36.10;101174.41;1823445;75;22850;-61
2021/03/30 09:28:22;;;;;;;1.85;1.20;;;;;;;12.31;35.25;101169.89;1788072;79;21170;-62
2021/03/30 09:30:49;;;;;;;3.47;1.40;;;;;;;12.28;35.05;101168.63;1791852;78;22115;-60
2021/03/30 09:33:16;;;;;;;2.90;1.20;;;;;;;12.26;35.67;101168.67;1773901;79;21222;-61
2021/03/30 09:35:44;;;;;;;4.75;1.10;;;;;;;12.30;35.88;101168.12;1791708;78;21187;-61
2021/03/30 09:38:11;;;;;;;2.50;1.32;;;;;;;12.37;35.87;101166.98;1794191;79;21194;-61
2021/03/30 09:40:41;;;;;;;4.60;1.35;;;;;;;12.43;35.65;101168.11;1796705;77;21174;-61
2021/03/30 09:43:14;;;;;;;2.85;1.17;;;;;;;12.46;34.75;101165.31;1779180;77;21345;-60
2021/03/30 09:45:42;;;;;;;4.65;1.60;;;;;;;12.42;34.57;101163.17;1777823;78;21403;-60
2021/03/30 09:48:12;;;;;;;5.65;1.57;;;;;;;12.39;34.66;101159.72;1775818;78;21362;-60
2021/03/30 09:50:42;;;;;;;1.65;1.20;;;;;;;12.34;35.48;101155.80;1775015;78;21511;-61
2021/03/30 09:53:10;;;;;;;2.37;1.30;;;;;;;12.38;35.95;101157.95;1774402;78;21155;-62
2021/03/30 09:55:41;;;;;;;2.80;1.95;;;;;;;12.44;35.29;101154.56;1771979;78;21179;-61
2021/03/30 09:58:15;;;;;;;4.45;1.72;;;;;;;12.48;35.17;101152.66;1778035;78;21173;-61
2021/03/30 10:00:52;;;;;;;4.03;1.90;;;;;;;12.52;35.51;101147.55;1777731;78;21178;-61
2021/03/30 10:03:20;;;;;;;4.00;1.35;;;;;;;12.54;34.86;101140.75;1778002;78;22421;-61
2021/03/30 10:05:48;;;;;;;8.53;1.30;;;;;;;12.43;35.05;101146.51;1748374;79;21178;-61
2021/03/30 10:08:29;;;;;;;6.28;1.72;;;;;;;12.43;35.59;101144.69;1778543;78;21570;-61
2021/03/30 10:10:59;;;;;;;4.33;1.80;;;;;;;12.49;35.49;101140.92;1774624;78;21194;-60
2021/03/30 10:13:35;;;;;;;2.30;1.47;;;;;;;12.57;35.43;101142.00;1780723;78;21162;-59
2021/03/30 10:16:10;;;;;;;4.10;1.67;;;;;;;12.61;35.40;101141.83;1776926;78;21179;-61
2021/03/30 10:18:39;;;;;;;2.70;1.45;;;;;;;12.60;35.39;101136.48;1778116;78;21480;-60
2021/03/30 10:21:12;;;;;;;1.98;1.40;;;;;;;12.67;35.38;101134.00;1779506;78;22860;-61
2021/03/30 10:23:51;;;;;;;2.55;1.62;;;;;;;12.73;35.49;101132.43;1781198;78;21179;-59
2021/03/30 10:26:29;;;;;;;4.40;2.00;;;;;;;12.81;35.39;101130.34;1776587;78;21117;-60
2021/03/30 10:29:04;;;;;;;2.60;2.10;;;;;;;12.83;34.97;101126.66;1778925;78;21364;-61
2021/03/30 10:34:31;;;;;;;3.35;1.70;;;;;;;12.80;35.54;101125.40;1774507;78;21795;-60
2021/03/30 10:37:04;;;;;;;3.55;1.37;;;;;;;12.85;34.86;101115.30;1776658;78;21195;-61
2021/03/30 10:39:44;;;;;;;3.12;2.10;;;;;;;12.90;34.75;101119.20;1775993;78;21225;-60
2021/03/30 10:42:16;;;;;;;3.42;1.82;;;;;;;12.91;34.95;101116.03;1774872;78;21557;-60
2021/03/30 10:44:50;;;;;;;4.03;1.92;;;;;;;12.93;35.21;101106.91;1776537;78;21163;-60
2021/03/30 10:47:23;;;;;;;2.25;1.30;;;;;;;12.99;34.95;101115.28;1777250;78;21178;-60
2021/03/30 10:49:51;;;;;;;2.83;1.87;;;;;;;13.03;34.90;101108.34;1777578;78;21098;-60
2021/03/30 10:52:25;;;;;;;6.40;1.62;;;;;;;13.03;34.36;101101.58;1778396;78;22175;-58
2021/03/30 10:54:53;;;;;;;2.55;1.50;;;;;;;13.05;34.48;101104.23;1777112;78;21151;-60
2021/03/30 10:57:22;;;;;;;5.47;1.92;;;;;;;13.08;34.54;101104.13;1776228;78;21201;-60
2021/03/30 10:59:50;;;;;;;4.45;1.50;;;;;;;13.07;33.90;101103.72;1780618;78;21712;-60
2021/03/30 11:02:18;;;;;;;3.20;1.77;;;;;;;13.02;33.86;101100.28;1778051;78;21179;-60
2021/03/30 11:04:45;;;;;;;3.65;2.30;;;;;;;13.00;34.39;101106.23;1781332;78;21087;-61
2021/03/30 11:07:13;;;;;;;3.85;2.60;;;;;;;13.04;34.49;101099.77;1777754;78;21127;-61
2021/03/30 11:09:42;;;;;;;4.80;2.15;;;;;;;13.08;34.35;101097.38;1771538;78;20949;-59
2021/03/30 11:12:10;;;;;;;3.77;2.27;;;;;;;13.10;34.29;101096.36;1781568;78;22206;-61
2021/03/30 11:14:39;;;;;;;4.30;1.65;;;;;;;13.14;34.39;101095.35;1782095;78;21127;-59
2021/03/30 11:17:06;;;;;;;4.45;1.98;;;;;;;13.16;34.37;101088.08;1777745;78;21500;-60
2021/03/30 11:19:34;;;;;;;12.75;2.27;;;;;;;13.20;34.40;101086.11;1780159;78;21119;-59
2021/03/30 11:22:03;;;;;;;4.45;2.17;;;;;;;13.21;34.47;101084.71;1779845;78;21128;-60
2021/03/30 11:24:35;;;;;;;4.00;1.92;;;;;;;13.24;34.29;101087.78;1777729;78;21134;-60
2021/03/30 11:27:00;;;;;;;2.83;2.22;;;;;;;13.22;34.45;101083.78;1793161;78;21121;-61
2021/03/30 11:35:01;;;;;;;2.27;1.95;;;;;;;13.11;34.73;101089.12;1772259;79;20981;-60
2021/03/30 11:38:21;;;;;;;4.73;2.97;;;;;;;13.25;34.70;101082.31;1796288;78;22516;-61
2021/03/30 11:40:48;;;;;;;3.05;2.20;;;;;;;13.27;34.39;101086.79;1766947;80;21555;-61
2021/03/30 11:43:17;;;;;;;3.90;2.37;;;;;;;13.33;34.48;101081.14;1770710;80;22008;-61
2021/03/30 11:45:44;;;;;;;6.03;2.87;;;;;;;13.32;33.94;101075.31;1767904;80;20999;-60
2021/03/30 11:48:12;;;;;;;4.62;2.98;;;;;;;13.20;33.71;101077.53;1770800;80;21526;-62
2021/03/30 11:50:39;;;;;;;6.72;2.33;;;;;;;13.17;34.41;101069.56;1775162;80;20963;-60
2021/03/30 11:53:06;;;;;;;4.87;2.45;;;;;;;13.21;34.55;101067.14;1768773;80;21119;-61
2021/03/30 11:55:36;;;;;;;3.45;2.55;;;;;;;13.30;34.71;101062.31;1776202;80;21480;-61
2021/03/30 11:58:03;;;;;;;5.65;2.30;;;;;;;13.37;34.14;101055.25;1771601;80;21089;-61
2021/03/30 12:00:31;;;;;;;4.15;2.55;;;;;;;13.39;34.09;101059.25;1773743;80;21168;-60